createdAt,value
2019-05-07T00:00:34.007Z,1014.68
2019-05-07T00:01:34.346Z,1014.69
2019-05-07T00:02:34.020Z,1014.65
2019-05-07T00:03:33.933Z,1014.65
2019-05-07T00:04:33.960Z,1014.69
2019-05-07T00:05:33.922Z,1014.72
2019-05-07T00:06:33.945Z,1014.68
2019-05-07T00:07:33.887Z,1014.66
2019-05-07T00:08:33.963Z,1014.66
2019-05-07T00:09:33.884Z,1014.67
2019-05-07T00:10:33.870Z,1014.63
2019-05-07T00:11:33.852Z,1014.68
2019-05-07T00:12:33.886Z,1014.65
2019-05-07T00:13:33.822Z,1014.66
2019-05-07T00:14:37.339Z,1014.65
2019-05-07T00:15:33.803Z,1014.70
2019-05-07T00:16:42.333Z,1014.71
2019-05-07T00:17:33.781Z,1014.70
2019-05-07T00:18:42.735Z,1014.69
2019-05-07T00:19:33.784Z,1014.68
2019-05-07T00:20:33.837Z,1014.65
2019-05-07T00:21:33.738Z,1014.67
2019-05-07T00:22:33.747Z,1014.71
2019-05-07T00:23:33.717Z,1014.68
2019-05-07T00:24:33.791Z,1014.69
2019-05-07T00:25:33.699Z,1014.68
2019-05-07T00:26:33.775Z,1014.71
2019-05-07T00:27:33.676Z,1014.70
2019-05-07T00:28:33.686Z,1014.64
2019-05-07T00:29:33.662Z,1014.65
2019-05-07T00:30:33.700Z,1014.71
2019-05-07T00:31:33.627Z,1014.71
2019-05-07T00:32:33.713Z,1014.68
2019-05-07T00:33:33.604Z,1014.71
2019-05-07T00:34:33.655Z,1014.70
2019-05-07T00:35:33.586Z,1014.68
2019-05-07T00:36:33.640Z,1014.76
2019-05-07T00:37:33.563Z,1014.73
2019-05-07T00:38:33.655Z,1014.74
2019-05-07T00:39:33.556Z,1014.74
2019-05-07T00:40:33.569Z,1014.74
2019-05-07T00:41:33.521Z,1014.72
2019-05-07T00:42:33.580Z,1014.75
2019-05-07T00:43:33.500Z,1014.71
2019-05-07T00:44:33.521Z,1014.72
2019-05-07T00:45:33.480Z,1014.70
2019-05-07T00:46:33.512Z,1014.72
2019-05-07T00:47:33.454Z,1014.74
2019-05-07T00:48:33.522Z,1014.71
2019-05-07T00:49:33.451Z,1014.70
2019-05-07T00:50:33.539Z,1014.72
2019-05-07T00:51:33.677Z,1014.69
2019-05-07T00:52:33.681Z,1014.71
2019-05-07T00:53:33.391Z,1014.70
2019-05-07T00:54:33.491Z,1014.68
2019-05-07T00:55:33.369Z,1014.67
2019-05-07T00:56:33.474Z,1014.69
2019-05-07T00:57:33.352Z,1014.63
2019-05-07T00:58:33.387Z,1014.65
2019-05-07T00:59:33.341Z,1014.67
2019-05-07T01:00:33.438Z,1014.64
2019-05-07T01:01:33.314Z,1014.65
2019-05-07T01:02:33.313Z,1014.64
2019-05-07T01:03:33.287Z,1014.64
2019-05-07T01:04:34.379Z,1014.66
2019-05-07T01:05:33.262Z,1014.61
2019-05-07T01:06:35.285Z,1014.63
2019-05-07T01:07:33.244Z,1014.57
2019-05-07T01:08:33.250Z,1014.58
2019-05-07T01:09:33.230Z,1014.56
2019-05-07T01:10:33.265Z,1014.57
2019-05-07T01:11:33.637Z,1014.61
2019-05-07T01:12:33.290Z,1014.60
2019-05-07T01:13:33.176Z,1014.58
2019-05-07T01:14:33.221Z,1014.62
2019-05-07T01:15:34.726Z,1014.60
2019-05-07T01:16:33.247Z,1014.61
2019-05-07T01:17:33.609Z,1014.56
2019-05-07T01:18:33.211Z,1014.56
2019-05-07T01:19:33.125Z,1014.58
2019-05-07T01:20:33.136Z,1014.60
2019-05-07T01:21:33.092Z,1014.53
2019-05-07T01:22:33.229Z,1014.63
2019-05-07T01:23:33.068Z,1014.55
2019-05-07T01:24:33.181Z,1014.53
2019-05-07T01:25:33.059Z,1014.55
2019-05-07T01:26:33.223Z,1014.56
2019-05-07T01:27:33.033Z,1014.60
2019-05-07T01:28:33.077Z,1014.55
2019-05-07T01:29:33.047Z,1014.58
2019-05-07T01:30:33.090Z,1014.56
2019-05-07T01:31:33.028Z,1014.60
2019-05-07T01:32:33.153Z,1014.59
2019-05-07T01:33:33.305Z,1014.57
2019-05-07T01:34:33.020Z,1014.62
2019-05-07T01:35:32.953Z,1014.59
2019-05-07T01:36:33.030Z,1014.62
2019-05-07T01:37:32.928Z,1014.58
2019-05-07T01:38:33.222Z,1014.59
2019-05-07T01:39:32.956Z,1014.55
2019-05-07T01:40:32.986Z,1014.56
2019-05-07T01:41:32.881Z,1014.58
2019-05-07T01:42:36.419Z,1014.56
2019-05-07T01:43:32.861Z,1014.60
2019-05-07T01:44:32.880Z,1014.61
2019-05-07T01:45:45.830Z,1014.61
2019-05-07T01:46:33.830Z,1014.58
2019-05-07T01:47:33.927Z,1014.66
2019-05-07T01:48:32.804Z,1014.61
2019-05-07T01:49:47.863Z,1014.61
2019-05-07T01:50:32.795Z,1014.65
2019-05-07T01:51:34.873Z,1014.62
2019-05-07T01:52:33.271Z,1014.65
2019-05-07T01:53:33.863Z,1014.64
2019-05-07T01:54:33.472Z,1014.62
2019-05-07T01:55:32.783Z,1014.65
2019-05-07T01:56:33.207Z,1014.65
2019-05-07T01:57:32.881Z,1014.64
2019-05-07T01:58:33.274Z,1014.63
2019-05-07T01:59:32.778Z,1014.63
2019-05-07T02:00:32.739Z,1014.65
2019-05-07T02:01:35.620Z,1014.68
2019-05-07T02:02:32.655Z,1014.66
2019-05-07T02:03:32.920Z,1014.69
2019-05-07T02:04:32.800Z,1014.70
2019-05-07T02:05:32.803Z,1014.67
2019-05-07T02:06:32.843Z,1014.71
2019-05-07T02:07:33.460Z,1014.67
2019-05-07T02:08:32.931Z,1014.70
2019-05-07T02:09:34.033Z,1014.67
2019-05-07T02:10:32.583Z,1014.78
2019-05-07T02:11:32.854Z,1014.72
2019-05-07T02:12:32.549Z,1014.72
2019-05-07T02:13:33.872Z,1014.77
2019-05-07T02:14:33.071Z,1014.77
2019-05-07T02:15:32.607Z,1014.77
2019-05-07T02:16:32.754Z,1014.83
2019-05-07T02:17:32.599Z,1014.76
2019-05-07T02:18:32.709Z,1014.77
2019-05-07T02:19:33.047Z,1014.80
2019-05-07T02:20:32.472Z,1014.81
2019-05-07T02:21:33.047Z,1014.78
2019-05-07T02:22:32.448Z,1014.80
2019-05-07T02:23:32.995Z,1014.88
2019-05-07T02:24:33.892Z,1014.90
2019-05-07T02:25:32.943Z,1014.87
2019-05-07T02:26:32.396Z,1014.84
2019-05-07T02:27:32.987Z,1014.85
2019-05-07T02:28:32.937Z,1014.84
2019-05-07T02:29:32.620Z,1014.84
2019-05-07T02:30:35.081Z,1014.84
2019-05-07T02:31:33.774Z,1014.84
2019-05-07T02:32:33.415Z,1014.85
2019-05-07T02:33:35.128Z,1014.81
2019-05-07T02:34:34.221Z,1014.79
2019-05-07T02:35:33.301Z,1014.75
2019-05-07T02:36:33.953Z,1014.80
2019-05-07T02:37:46.469Z,1014.75
2019-05-07T02:38:34.119Z,1014.76
2019-05-07T02:39:34.280Z,1014.80
2019-05-07T02:40:33.890Z,1014.77
2019-05-07T02:41:33.036Z,1014.78
2019-05-07T02:42:33.569Z,1014.78
2019-05-07T02:43:33.834Z,1014.80
2019-05-07T02:44:32.525Z,1014.75
2019-05-07T02:45:33.168Z,1014.79
2019-05-07T02:46:36.077Z,1014.75
2019-05-07T02:47:33.130Z,1014.74
2019-05-07T02:48:33.348Z,1014.72
2019-05-07T02:49:32.922Z,1014.72
2019-05-07T02:50:32.909Z,1014.77
2019-05-07T02:51:33.476Z,1014.74
2019-05-07T02:52:32.479Z,1014.71
2019-05-07T02:53:33.691Z,1014.73
2019-05-07T02:54:32.880Z,1014.73
2019-05-07T02:55:33.645Z,1014.74
2019-05-07T02:56:33.330Z,1014.77
2019-05-07T02:57:33.920Z,1014.75
2019-05-07T02:58:33.127Z,1014.76
2019-05-07T02:59:33.605Z,1014.80
2019-05-07T03:00:33.359Z,1014.81
2019-05-07T03:01:33.442Z,1014.77
2019-05-07T03:02:33.182Z,1014.78
2019-05-07T03:03:33.515Z,1014.73
2019-05-07T03:04:33.350Z,1014.79
2019-05-07T03:05:35.012Z,1014.81
2019-05-07T03:06:33.882Z,1014.78
2019-05-07T03:07:33.550Z,1014.77
2019-05-07T03:08:33.381Z,1014.74
2019-05-07T03:09:32.853Z,1014.79
2019-05-07T03:10:34.023Z,1014.73
2019-05-07T03:11:33.915Z,1014.67
2019-05-07T03:12:33.515Z,1014.74
2019-05-07T03:13:33.760Z,1014.67
2019-05-07T03:14:32.465Z,1014.67
2019-05-07T03:15:33.158Z,1014.71
2019-05-07T03:16:39.767Z,1014.68
2019-05-07T03:17:33.508Z,1014.73
2019-05-07T03:18:33.527Z,1014.71
2019-05-07T03:19:33.125Z,1014.68
2019-05-07T03:20:33.416Z,1014.68
2019-05-07T03:21:32.897Z,1014.70
2019-05-07T03:22:33.766Z,1014.71
2019-05-07T03:23:34.051Z,1014.68
2019-05-07T03:24:38.787Z,1014.69
2019-05-07T03:25:33.803Z,1014.69
2019-05-07T03:26:34.135Z,1014.69
2019-05-07T03:27:34.097Z,1014.66
2019-05-07T03:28:33.584Z,1014.69
2019-05-07T03:29:33.389Z,1014.71
2019-05-07T03:30:36.062Z,1014.67
2019-05-07T03:31:36.288Z,1014.65
2019-05-07T03:32:38.416Z,1014.74
2019-05-07T03:33:36.696Z,1014.74
2019-05-07T03:34:36.637Z,1014.69
2019-05-07T03:35:36.808Z,1014.67
2019-05-07T03:36:35.430Z,1014.74
2019-05-07T03:37:35.291Z,1014.70
2019-05-07T03:38:33.476Z,1014.68
2019-05-07T03:39:33.761Z,1014.72
2019-05-07T03:40:32.872Z,1014.71
2019-05-07T03:41:33.342Z,1014.73
2019-05-07T03:42:33.482Z,1014.71
2019-05-07T03:43:32.570Z,1014.70
2019-05-07T03:44:33.856Z,1014.68
2019-05-07T03:45:33.530Z,1014.65
2019-05-07T03:46:33.662Z,1014.65
2019-05-07T03:47:33.157Z,1014.66
2019-05-07T03:48:33.227Z,1014.65
2019-05-07T03:49:34.205Z,1014.63
2019-05-07T03:50:33.824Z,1014.65
2019-05-07T03:51:32.955Z,1014.64
2019-05-07T03:52:33.600Z,1014.64
2019-05-07T03:53:33.780Z,1014.63
2019-05-07T03:54:33.987Z,1014.66
2019-05-07T03:55:33.224Z,1014.65
2019-05-07T03:56:33.033Z,1014.69
2019-05-07T03:57:33.319Z,1014.72
2019-05-07T03:58:33.999Z,1014.71
2019-05-07T03:59:34.182Z,1014.75
2019-05-07T04:00:33.218Z,1014.69
2019-05-07T04:01:33.484Z,1014.78
2019-05-07T04:02:33.200Z,1014.69
2019-05-07T04:03:34.088Z,1014.69
2019-05-07T04:04:33.270Z,1014.68
2019-05-07T04:05:34.200Z,1014.67
2019-05-07T04:06:33.212Z,1014.64
2019-05-07T04:07:33.689Z,1014.64
2019-05-07T04:08:33.371Z,1014.68
2019-05-07T04:09:33.405Z,1014.62
2019-05-07T04:10:33.766Z,1014.68
2019-05-07T04:11:33.769Z,1014.65
2019-05-07T04:12:34.324Z,1014.65
2019-05-07T04:13:33.540Z,1014.65
2019-05-07T04:14:34.471Z,1014.65
2019-05-07T04:15:32.943Z,1014.68
2019-05-07T04:16:33.230Z,1014.64
2019-05-07T04:17:33.951Z,1014.68
2019-05-07T04:18:32.926Z,1014.69
2019-05-07T04:19:32.819Z,1014.60
2019-05-07T04:20:33.371Z,1014.60
2019-05-07T04:21:34.229Z,1014.65
2019-05-07T04:22:34.280Z,1014.66
2019-05-07T04:23:34.277Z,1014.65
2019-05-07T04:24:33.248Z,1014.65
2019-05-07T04:25:34.350Z,1014.69
2019-05-07T04:26:33.923Z,1014.65
2019-05-07T04:27:33.212Z,1014.70
2019-05-07T04:28:33.380Z,1014.67
2019-05-07T04:29:31.111Z,1014.67
2019-05-07T04:30:33.063Z,1014.67
2019-05-07T04:31:33.934Z,1014.67
2019-05-07T04:32:33.452Z,1014.68
2019-05-07T04:33:33.298Z,1014.72
2019-05-07T04:34:33.590Z,1014.68
2019-05-07T04:35:33.461Z,1014.63
2019-05-07T04:36:33.985Z,1014.71
2019-05-07T04:37:33.227Z,1014.69
2019-05-07T04:38:33.385Z,1014.68
2019-05-07T04:39:33.477Z,1014.72
2019-05-07T04:40:33.730Z,1014.77
2019-05-07T04:41:33.015Z,1014.72
2019-05-07T04:42:33.462Z,1014.74
2019-05-07T04:43:33.329Z,1014.75
2019-05-07T04:44:33.227Z,1014.82
2019-05-07T04:45:33.428Z,1014.70
2019-05-07T04:46:33.328Z,1014.81
2019-05-07T04:47:41.553Z,1014.80
2019-05-07T04:48:34.174Z,1014.79
2019-05-07T04:49:33.252Z,1014.83
2019-05-07T04:50:39.463Z,1014.83
2019-05-07T04:51:33.586Z,1014.84
2019-05-07T04:52:33.550Z,1014.78
2019-05-07T04:53:32.758Z,1014.79
2019-05-07T04:54:32.871Z,1014.77
2019-05-07T04:55:33.471Z,1014.82
2019-05-07T04:56:33.146Z,1014.76
2019-05-07T04:57:33.015Z,1014.79
2019-05-07T04:58:34.343Z,1014.75
2019-05-07T04:59:33.047Z,1014.75
2019-05-07T05:00:45.795Z,1014.78
2019-05-07T05:01:32.849Z,1014.77
2019-05-07T05:02:32.509Z,1014.78
2019-05-07T05:03:30.749Z,1014.74
2019-05-07T05:04:34.664Z,1014.74
2019-05-07T05:05:32.983Z,1014.70
2019-05-07T05:06:32.933Z,1014.82
2019-05-07T05:07:33.322Z,1014.78
2019-05-07T05:08:32.515Z,1014.71
2019-05-07T05:09:32.925Z,1014.79
2019-05-07T05:10:33.472Z,1014.78
2019-05-07T05:11:33.311Z,1014.78
2019-05-07T05:12:32.645Z,1014.80
2019-05-07T05:13:33.144Z,1014.77
2019-05-07T05:14:33.457Z,1014.78
2019-05-07T05:15:32.089Z,1014.80
2019-05-07T05:16:32.621Z,1014.78
2019-05-07T05:17:32.009Z,1014.75
2019-05-07T05:18:32.807Z,1014.80
2019-05-07T05:19:32.315Z,1014.77
2019-05-07T05:20:30.571Z,1014.77
2019-05-07T05:21:32.249Z,1014.84
2019-05-07T05:22:31.732Z,1014.80
2019-05-07T05:23:32.295Z,1014.83
2019-05-07T05:24:32.788Z,1014.87
2019-05-07T05:25:32.317Z,1014.82
2019-05-07T05:26:32.476Z,1014.84
2019-05-07T05:27:32.588Z,1014.86
2019-05-07T05:28:32.359Z,1014.88
2019-05-07T05:29:32.313Z,1014.84
2019-05-07T05:30:32.593Z,1014.84
2019-05-07T05:31:30.440Z,1014.86
2019-05-07T05:32:32.421Z,1014.89
2019-05-07T05:33:32.394Z,1014.83
2019-05-07T05:34:32.767Z,1014.85
2019-05-07T05:35:32.091Z,1014.88
2019-05-07T05:36:32.762Z,1014.89
2019-05-07T05:37:32.141Z,1014.90
2019-05-07T05:38:32.280Z,1014.88
2019-05-07T05:39:32.043Z,1014.87
2019-05-07T05:40:32.005Z,1014.86
2019-05-07T05:41:30.305Z,1014.88
2019-05-07T05:42:37.277Z,1014.85
2019-05-07T05:43:31.917Z,1014.87
2019-05-07T05:44:32.023Z,1014.85
2019-05-07T05:45:30.262Z,1014.87
2019-05-07T05:46:31.949Z,1014.90
2019-05-07T05:47:30.245Z,1014.93
2019-05-07T05:48:30.255Z,1014.90
2019-05-07T05:49:32.195Z,1014.91
2019-05-07T05:50:32.974Z,1014.85
2019-05-07T05:51:31.689Z,1014.89
2019-05-07T05:52:30.281Z,1014.87
2019-05-07T05:53:32.540Z,1014.85
2019-05-07T05:54:31.844Z,1014.87
2019-05-07T05:55:32.136Z,1014.88
2019-05-07T05:56:32.287Z,1014.87
2019-05-07T05:57:32.246Z,1014.86
2019-05-07T05:58:32.386Z,1014.87
2019-05-07T05:59:47.313Z,1014.82
2019-05-07T06:00:32.864Z,1014.86
2019-05-07T06:01:32.067Z,1014.90
2019-05-07T06:02:32.210Z,1014.85
2019-05-07T06:03:32.239Z,1014.83
2019-05-07T06:04:30.086Z,1014.85
2019-05-07T06:05:33.877Z,1014.90
2019-05-07T06:06:30.068Z,1014.83
2019-05-07T06:07:31.939Z,1014.85
2019-05-07T06:08:32.314Z,1014.84
2019-05-07T06:09:30.023Z,1014.87
2019-05-07T06:10:30.095Z,1014.86
2019-05-07T06:11:32.075Z,1014.86
2019-05-07T06:12:30.007Z,1014.85
2019-05-07T06:13:32.258Z,1014.84
2019-05-07T06:14:30.053Z,1014.79
2019-05-07T06:15:29.937Z,1014.85
2019-05-07T06:16:30.035Z,1014.84
2019-05-07T06:17:31.908Z,1014.84
2019-05-07T06:18:29.946Z,1014.81
2019-05-07T06:19:29.912Z,1014.81
2019-05-07T06:20:32.028Z,1014.85
2019-05-07T06:21:32.151Z,1014.80
2019-05-07T06:22:29.872Z,1014.89
2019-05-07T06:23:29.847Z,1014.84
2019-05-07T06:24:31.780Z,1014.81
2019-05-07T06:25:33.229Z,1014.84
2019-05-07T06:26:31.787Z,1014.87
2019-05-07T06:27:29.807Z,1014.88
2019-05-07T06:28:36.779Z,1014.92
2019-05-07T06:29:29.792Z,1014.95
2019-05-07T06:30:37.813Z,1014.93
2019-05-07T06:31:29.757Z,1014.87
2019-05-07T06:32:32.013Z,1014.88
2019-05-07T06:33:29.734Z,1014.92
2019-05-07T06:34:29.782Z,1014.86
2019-05-07T06:35:29.712Z,1014.90
2019-05-07T06:36:29.776Z,1014.88
2019-05-07T06:37:29.742Z,1014.84
2019-05-07T06:38:31.559Z,1014.86
2019-05-07T06:39:29.700Z,1014.86
2019-05-07T06:40:32.067Z,1014.84
2019-05-07T06:41:29.666Z,1014.84
2019-05-07T06:42:29.701Z,1014.85
2019-05-07T06:43:29.622Z,1014.87
2019-05-07T06:44:31.899Z,1014.85
2019-05-07T06:45:32.309Z,1014.90
2019-05-07T06:46:29.629Z,1014.89
2019-05-07T06:47:31.776Z,1014.88
2019-05-07T06:48:38.830Z,1014.88
2019-05-07T06:49:32.468Z,1014.86
2019-05-07T06:50:29.586Z,1014.89
2019-05-07T06:51:29.543Z,1014.93
2019-05-07T06:52:31.451Z,1014.91
2019-05-07T06:53:29.531Z,1014.93
2019-05-07T06:54:31.962Z,1014.97
2019-05-07T06:55:29.535Z,1014.91
2019-05-07T06:56:29.598Z,1014.92
2019-05-07T06:57:29.512Z,1014.95
2019-05-07T06:58:29.517Z,1014.92
2019-05-07T06:59:32.587Z,1014.95
2019-05-07T07:00:31.928Z,1014.90
2019-05-07T07:01:29.428Z,1014.91
2019-05-07T07:02:29.431Z,1014.93
2019-05-07T07:03:29.414Z,1014.90
2019-05-07T07:04:29.445Z,1014.91
2019-05-07T07:05:29.399Z,1014.91
2019-05-07T07:06:29.459Z,1014.89
2019-05-07T07:07:33.860Z,1014.94
2019-05-07T07:08:32.437Z,1014.86
2019-05-07T07:09:29.348Z,1014.90
2019-05-07T07:10:29.425Z,1014.90
2019-05-07T07:11:29.344Z,1014.90
2019-05-07T07:12:29.428Z,1014.85
2019-05-07T07:13:29.301Z,1014.81
2019-05-07T07:14:29.306Z,1014.86
2019-05-07T07:15:29.426Z,1014.86
2019-05-07T07:16:29.322Z,1014.83
2019-05-07T07:17:29.252Z,1014.78
2019-05-07T07:18:29.335Z,1014.85
2019-05-07T07:19:29.237Z,1014.86
2019-05-07T07:20:29.281Z,1014.85
2019-05-07T07:21:29.211Z,1014.93
2019-05-07T07:22:29.262Z,1014.85
2019-05-07T07:23:29.192Z,1014.90
2019-05-07T07:24:29.279Z,1014.89
2019-05-07T07:25:29.180Z,1014.87
2019-05-07T07:26:29.191Z,1014.82
2019-05-07T07:27:29.143Z,1014.82
2019-05-07T07:28:29.203Z,1014.79
2019-05-07T07:29:29.133Z,1014.84
2019-05-07T07:30:29.145Z,1014.84
2019-05-07T07:31:29.113Z,1014.90
2019-05-07T07:32:29.129Z,1014.87
2019-05-07T07:33:29.086Z,1014.86
2019-05-07T07:34:29.153Z,1014.82
2019-05-07T07:35:29.080Z,1014.78
2019-05-07T07:36:29.159Z,1014.85
2019-05-07T07:37:29.043Z,1014.85
2019-05-07T07:38:29.069Z,1014.82
2019-05-07T07:39:29.023Z,1014.76
2019-05-07T07:40:29.127Z,1014.78
2019-05-07T07:41:28.991Z,1014.71
2019-05-07T07:42:29.102Z,1014.76
2019-05-07T07:43:28.999Z,1014.74
2019-05-07T07:44:29.006Z,1014.77
2019-05-07T07:45:28.966Z,1014.74
2019-05-07T07:46:29.027Z,1014.79
2019-05-07T07:47:28.924Z,1014.69
2019-05-07T07:48:28.933Z,1014.79
2019-05-07T07:49:28.908Z,1014.75
2019-05-07T07:50:28.977Z,1014.79
2019-05-07T07:51:40.675Z,1014.75
2019-05-07T07:52:29.877Z,1014.73
2019-05-07T07:53:32.173Z,1014.74
2019-05-07T07:54:31.992Z,1014.81
2019-05-07T07:55:28.915Z,1014.78
2019-05-07T07:56:28.827Z,1014.78
2019-05-07T07:57:29.910Z,1014.73
2019-05-07T07:58:31.494Z,1014.72
2019-05-07T07:59:35.872Z,1014.65
2019-05-07T08:00:30.081Z,1014.75
2019-05-07T08:01:36.284Z,1014.73
2019-05-07T08:02:28.767Z,1014.70
2019-05-07T08:03:32.829Z,1014.74
2019-05-07T08:04:28.740Z,1014.70
2019-05-07T08:05:29.790Z,1014.66
2019-05-07T08:06:28.738Z,1014.76
2019-05-07T08:07:28.749Z,1014.66
2019-05-07T08:08:28.704Z,1014.65
2019-05-07T08:09:28.765Z,1014.62
2019-05-07T08:10:28.677Z,1014.61
2019-05-07T08:11:28.705Z,1014.63
2019-05-07T08:12:28.695Z,1014.62
2019-05-07T08:13:28.690Z,1014.67
2019-05-07T08:14:28.630Z,1014.72
2019-05-07T08:15:28.704Z,1014.71
2019-05-07T08:16:28.620Z,1014.66
2019-05-07T08:17:28.727Z,1014.72
2019-05-07T08:18:28.646Z,1014.66
2019-05-07T08:19:28.644Z,1014.71
2019-05-07T08:20:28.564Z,1014.69
2019-05-07T08:21:28.688Z,1014.74
2019-05-07T08:22:28.542Z,1014.68
2019-05-07T08:23:28.653Z,1014.67
2019-05-07T08:24:28.899Z,1014.68
2019-05-07T08:25:28.570Z,1014.67
2019-05-07T08:26:28.533Z,1014.69
2019-05-07T08:27:28.584Z,1014.69
2019-05-07T08:28:28.472Z,1014.66
2019-05-07T08:29:28.596Z,1014.59
2019-05-07T08:30:28.455Z,1014.60
2019-05-07T08:31:28.540Z,1014.54
2019-05-07T08:32:28.449Z,1014.62
2019-05-07T08:33:28.541Z,1014.58
2019-05-07T08:34:28.405Z,1014.52
2019-05-07T08:35:28.444Z,1014.51
2019-05-07T08:36:28.397Z,1014.54
2019-05-07T08:37:28.464Z,1014.52
2019-05-07T08:38:30.136Z,1014.50
2019-05-07T08:39:28.463Z,1014.47
2019-05-07T08:40:28.341Z,1014.48
2019-05-07T08:41:28.435Z,1014.52
2019-05-07T08:42:28.323Z,1014.66
2019-05-07T08:43:28.387Z,1014.57
2019-05-07T08:44:28.309Z,1014.58
2019-05-07T08:45:29.442Z,1014.57
2019-05-07T08:46:28.414Z,1014.56
2019-05-07T08:47:28.313Z,1014.50
2019-05-07T08:48:28.265Z,1014.46
2019-05-07T08:49:36.888Z,1014.46
2019-05-07T08:50:29.232Z,1014.54
2019-05-07T08:51:28.264Z,1014.51
2019-05-07T08:52:28.208Z,1014.52
2019-05-07T08:53:28.251Z,1014.54
2019-05-07T08:54:28.213Z,1014.55
2019-05-07T08:55:28.265Z,1014.45
2019-05-07T08:56:28.186Z,1014.51
2019-05-07T08:57:29.201Z,1014.45
2019-05-07T08:58:28.149Z,1014.47
2019-05-07T08:59:28.197Z,1014.45
2019-05-07T09:00:28.122Z,1014.52
2019-05-07T09:01:28.265Z,1014.52
2019-05-07T09:02:28.101Z,1014.47
2019-05-07T09:03:28.108Z,1014.38
2019-05-07T09:04:28.076Z,1014.46
2019-05-07T09:05:28.122Z,1014.44
2019-05-07T09:06:28.086Z,1014.32
2019-05-07T09:07:28.154Z,1014.35
2019-05-07T09:08:28.034Z,1014.42
2019-05-07T09:09:28.068Z,1014.45
2019-05-07T09:10:28.018Z,1014.37
2019-05-07T09:11:28.091Z,1014.33
2019-05-07T09:12:27.993Z,1014.36
2019-05-07T09:13:28.105Z,1014.33
2019-05-07T09:14:27.969Z,1014.36
2019-05-07T09:15:27.986Z,1014.32
2019-05-07T09:16:27.981Z,1014.39
2019-05-07T09:17:28.054Z,1014.35
2019-05-07T09:18:27.924Z,1014.30
2019-05-07T09:19:28.021Z,1014.36
2019-05-07T09:20:27.904Z,1014.36
2019-05-07T09:21:27.924Z,1014.34
2019-05-07T09:22:27.914Z,1014.30
2019-05-07T09:23:27.938Z,1014.30
2019-05-07T09:24:27.861Z,1014.26
2019-05-07T09:25:27.952Z,1014.31
2019-05-07T09:26:27.845Z,1014.34
2019-05-07T09:27:29.944Z,1014.30
2019-05-07T09:28:27.831Z,1014.29
2019-05-07T09:29:29.946Z,1014.22
2019-05-07T09:30:28.626Z,1014.18
2019-05-07T09:31:27.893Z,1014.26
2019-05-07T09:32:27.794Z,1014.16
2019-05-07T09:33:27.804Z,1014.14
2019-05-07T09:34:27.767Z,1014.22
2019-05-07T09:35:31.946Z,1014.17
2019-05-07T09:36:27.728Z,1014.14
2019-05-07T09:37:27.824Z,1014.16
2019-05-07T09:38:27.717Z,1014.13
2019-05-07T09:39:27.741Z,1014.18
2019-05-07T09:40:27.688Z,1014.23
2019-05-07T09:41:27.776Z,1014.19
2019-05-07T09:42:27.678Z,1014.25
2019-05-07T09:43:27.666Z,1014.21
2019-05-07T09:44:27.639Z,1014.21
2019-05-07T09:45:27.679Z,1014.15
2019-05-07T09:46:27.628Z,1014.10
2019-05-07T09:47:27.743Z,1014.08
2019-05-07T09:48:27.597Z,1014.02
2019-05-07T09:49:27.606Z,1014.03
2019-05-07T09:50:27.576Z,1014.02
2019-05-07T09:51:27.618Z,1014.01
2019-05-07T09:52:27.570Z,1014.03
2019-05-07T09:53:27.664Z,1013.98
2019-05-07T09:54:27.547Z,1014.00
2019-05-07T09:55:27.543Z,1014.03
2019-05-07T09:56:27.509Z,1014.04
2019-05-07T09:57:31.367Z,1014.02
2019-05-07T09:58:36.774Z,1014.06
2019-05-07T09:59:28.480Z,1014.02
2019-05-07T10:00:27.474Z,1014.21
2019-05-07T10:01:27.456Z,1014.16
2019-05-07T10:02:27.538Z,1014.09
2019-05-07T10:03:27.437Z,1013.95
2019-05-07T10:04:27.503Z,1014.18
2019-05-07T10:05:27.411Z,1014.15
2019-05-07T10:06:27.425Z,1014.05
2019-05-07T10:07:27.407Z,1014.12
2019-05-07T10:08:27.434Z,1014.01
2019-05-07T10:09:27.381Z,1013.97
2019-05-07T10:10:27.443Z,1013.94
2019-05-07T10:11:27.347Z,1013.99
2019-05-07T10:12:42.148Z,1013.99
2019-05-07T10:13:27.329Z,1013.96
2019-05-07T10:14:28.396Z,1013.91
2019-05-07T10:15:27.307Z,1013.92
2019-05-07T10:16:34.856Z,1013.96
2019-05-07T10:17:27.303Z,1013.90
2019-05-07T10:18:27.295Z,1013.89
2019-05-07T10:19:27.313Z,1013.93
2019-05-07T10:20:27.308Z,1014.04
2019-05-07T10:21:27.242Z,1013.89
2019-05-07T10:22:27.363Z,1014.05
2019-05-07T10:23:27.219Z,1014.09
2019-05-07T10:24:27.240Z,1014.07
2019-05-07T10:25:27.201Z,1014.00
2019-05-07T10:26:27.244Z,1014.02
2019-05-07T10:27:27.179Z,1013.89
2019-05-07T10:28:27.213Z,1013.87
2019-05-07T10:29:27.145Z,1014.00
2019-05-07T10:30:27.170Z,1013.92
2019-05-07T10:31:27.133Z,1014.02
2019-05-07T10:32:27.185Z,1013.80
2019-05-07T10:33:27.155Z,1013.82
2019-05-07T10:34:27.198Z,1013.79
2019-05-07T10:35:27.085Z,1014.00
2019-05-07T10:36:27.110Z,1014.07
2019-05-07T10:37:27.065Z,1013.91
2019-05-07T10:38:27.162Z,1014.07
2019-05-07T10:39:27.042Z,1013.84
2019-05-07T10:40:27.136Z,1014.02
2019-05-07T10:41:27.015Z,1013.94
2019-05-07T10:42:27.110Z,1013.91
2019-05-07T10:43:27.012Z,1013.91
2019-05-07T10:44:27.065Z,1013.98
2019-05-07T10:45:26.989Z,1013.93
2019-05-07T10:46:26.977Z,1013.96
2019-05-07T10:47:26.957Z,1013.93
2019-05-07T10:48:27.030Z,1013.89
2019-05-07T10:49:26.934Z,1013.74
2019-05-07T10:50:36.335Z,1013.92
2019-05-07T10:51:27.907Z,1013.95
2019-05-07T10:52:26.937Z,1013.96
2019-05-07T10:53:26.902Z,1013.94
2019-05-07T10:54:26.933Z,1013.98
2019-05-07T10:55:26.881Z,1013.73
2019-05-07T10:56:26.938Z,1013.66
2019-05-07T10:57:26.845Z,1013.68
2019-05-07T10:58:32.014Z,1013.74
2019-05-07T10:59:26.821Z,1013.66
2019-05-07T11:00:26.967Z,1013.67
2019-05-07T11:01:26.852Z,1013.63
2019-05-07T11:02:28.825Z,1013.66
2019-05-07T11:03:26.790Z,1013.67
2019-05-07T11:04:39.247Z,1013.64
2019-05-07T11:05:27.767Z,1013.60
2019-05-07T11:06:26.802Z,1013.63
2019-05-07T11:07:26.735Z,1013.56
2019-05-07T11:08:26.858Z,1013.61
2019-05-07T11:09:26.712Z,1013.64
2019-05-07T11:10:26.759Z,1013.61
2019-05-07T11:11:26.701Z,1013.67
2019-05-07T11:12:26.749Z,1013.59
2019-05-07T11:13:26.707Z,1013.59
2019-05-07T11:14:26.755Z,1013.60
2019-05-07T11:15:26.651Z,1013.58
2019-05-07T11:16:26.666Z,1013.58
2019-05-07T11:17:26.640Z,1013.57
2019-05-07T11:18:26.723Z,1013.51
2019-05-07T11:19:26.607Z,1013.57
2019-05-07T11:20:26.748Z,1013.54
2019-05-07T11:21:26.598Z,1013.49
2019-05-07T11:22:26.608Z,1013.47
2019-05-07T11:23:26.570Z,1013.53
2019-05-07T11:24:26.672Z,1013.50
2019-05-07T11:25:26.541Z,1013.50
2019-05-07T11:26:26.633Z,1013.54
2019-05-07T11:27:26.525Z,1013.55
2019-05-07T11:28:26.544Z,1013.47
2019-05-07T11:29:26.542Z,1013.52
2019-05-07T11:30:26.559Z,1013.54
2019-05-07T11:31:26.470Z,1013.51
2019-05-07T11:32:26.570Z,1013.56
2019-05-07T11:33:26.454Z,1013.58
2019-05-07T11:34:26.514Z,1013.42
2019-05-07T11:35:26.442Z,1013.48
2019-05-07T11:36:26.550Z,1013.43
2019-05-07T11:37:26.415Z,1013.41
2019-05-07T11:38:26.407Z,1013.41
2019-05-07T11:39:26.399Z,1013.42
2019-05-07T11:40:26.430Z,1013.34
2019-05-07T11:41:26.380Z,1013.38
2019-05-07T11:42:27.458Z,1013.44
2019-05-07T11:43:26.341Z,1013.42
2019-05-07T11:44:28.482Z,1013.41
2019-05-07T11:45:26.318Z,1013.41
2019-05-07T11:46:28.413Z,1013.52
2019-05-07T11:47:26.333Z,1013.37
2019-05-07T11:48:28.324Z,1013.37
2019-05-07T11:49:26.291Z,1013.38
2019-05-07T11:50:26.290Z,1013.35
2019-05-07T11:51:26.259Z,1013.33
2019-05-07T11:52:26.380Z,1013.34
2019-05-07T11:53:26.266Z,1013.32
2019-05-07T11:54:26.352Z,1013.31
2019-05-07T11:55:26.210Z,1013.31
2019-05-07T11:56:26.237Z,1013.33
2019-05-07T11:57:26.198Z,1013.42
2019-05-07T11:58:26.237Z,1013.26
2019-05-07T11:59:26.183Z,1013.21
2019-05-07T12:00:26.313Z,1013.21
2019-05-07T12:01:26.146Z,1013.32
2019-05-07T12:02:26.165Z,1013.36
2019-05-07T12:03:26.131Z,1013.48
2019-05-07T12:04:27.852Z,1013.50
2019-05-07T12:05:26.107Z,1013.54